sensor_id;sensor_type;location;lat;lon;timestamp;temperature;humidity
64634;DHT22;51043;52.406;9.690;2023-11-19T00:01:55;6.10;99.90
64634;DHT22;51043;52.406;9.690;2023-11-19T00:04:28;6.10;99.90
64634;DHT22;51043;52.406;9.690;2023-11-19T00:06:57;6.10;99.90
64634;DHT22;51043;52.406;9.690;2023-11-19T00:09:30;6.20;99.90
64634;DHT22;51043;52.406;9.690;2023-11-19T00:12:00;6.20;99.90
64634;DHT22;51043;52.406;9.690;2023-11-19T00:14:28;6.20;99.90
64634;DHT22;51043;52.406;9.690;2023-11-19T00:16:56;6.20;99.90
64634;DHT22;51043;52.406;9.690;2023-11-19T00:19:27;6.20;99.90
64634;DHT22;51043;52.406;9.690;2023-11-19T00:21:55;6.30;99.90
64634;DHT22;51043;52.406;9.690;2023-11-19T00:24:28;6.40;99.90
64634;DHT22;51043;52.406;9.690;2023-11-19T00:26:58;6.40;99.90
64634;DHT22;51043;52.406;9.690;2023-11-19T00:29:26;6.50;99.90
64634;DHT22;51043;52.406;9.690;2023-11-19T00:31:54;6.50;99.90
64634;DHT22;51043;52.406;9.690;2023-11-19T00:34:26;6.50;99.90
64634;DHT22;51043;52.406;9.690;2023-11-19T00:36:54;6.60;99.90
64634;DHT22;51043;52.406;9.690;2023-11-19T00:39:29;6.60;99.90
64634;DHT22;51043;52.406;9.690;2023-11-19T00:42:01;6.70;99.90
64634;DHT22;51043;52.406;9.690;2023-11-19T00:44:29;6.70;99.90
64634;DHT22;51043;52.406;9.690;2023-11-19T00:47:01;6.70;99.90
64634;DHT22;51043;52.406;9.690;2023-11-19T00:49:29;6.70;99.90
64634;DHT22;51043;52.406;9.690;2023-11-19T00:51:59;6.70;99.90
64634;DHT22;51043;52.406;9.690;2023-11-19T00:54:29;6.70;99.90
64634;DHT22;51043;52.406;9.690;2023-11-19T00:56:57;6.70;99.90
64634;DHT22;51043;52.406;9.690;2023-11-19T00:59:28;6.70;99.90
64634;DHT22;51043;52.406;9.690;2023-11-19T01:01:56;6.80;99.90
64634;DHT22;51043;52.406;9.690;2023-11-19T01:04:26;6.90;99.90
64634;DHT22;51043;52.406;9.690;2023-11-19T01:06:55;6.90;99.90
64634;DHT22;51043;52.406;9.690;2023-11-19T01:09:29;7.00;99.90
64634;DHT22;51043;52.406;9.690;2023-11-19T01:11:59;7.00;99.90
64634;DHT22;51043;52.406;9.690;2023-11-19T01:14:31;7.00;99.90
64634;DHT22;51043;52.406;9.690;2023-11-19T01:16:59;7.00;99.90
64634;DHT22;51043;52.406;9.690;2023-11-19T01:19:30;7.10;99.90
64634;DHT22;51043;52.406;9.690;2023-11-19T01:21:58;7.10;99.90
64634;DHT22;51043;52.406;9.690;2023-11-19T01:24:27;7.20;99.90
64634;DHT22;51043;52.406;9.690;2023-11-19T01:26:55;7.20;99.90
64634;DHT22;51043;52.406;9.690;2023-11-19T01:29:25;7.20;99.90
64634;DHT22;51043;52.406;9.690;2023-11-19T01:31:55;7.30;99.90
64634;DHT22;51043;52.406;9.690;2023-11-19T01:34:23;7.30;99.90
64634;DHT22;51043;52.406;9.690;2023-11-19T01:36:53;7.40;99.90
64634;DHT22;51043;52.406;9.690;2023-11-19T01:39:22;7.40;99.90
64634;DHT22;51043;52.406;9.690;2023-11-19T01:41:53;7.50;99.90
64634;DHT22;51043;52.406;9.690;2023-11-19T01:44:21;7.50;99.90
64634;DHT22;51043;52.406;9.690;2023-11-19T01:46:49;7.50;99.90
64634;DHT22;51043;52.406;9.690;2023-11-19T01:49:20;7.60;99.90
64634;DHT22;51043;52.406;9.690;2023-11-19T01:51:48;7.60;99.90
64634;DHT22;51043;52.406;9.690;2023-11-19T01:54:17;7.70;99.90
64634;DHT22;51043;52.406;9.690;2023-11-19T01:56:45;7.70;99.90
64634;DHT22;51043;52.406;9.690;2023-11-19T01:59:14;7.70;99.90
64634;DHT22;51043;52.406;9.690;2023-11-19T02:01:45;7.80;99.90
64634;DHT22;51043;52.406;9.690;2023-11-19T02:04:13;7.80;99.90
64634;DHT22;51043;52.406;9.690;2023-11-19T02:06:48;7.80;99.90
64634;DHT22;51043;52.406;9.690;2023-11-19T02:09:19;7.90;99.90
64634;DHT22;51043;52.406;9.690;2023-11-19T02:11:49;7.90;99.90
64634;DHT22;51043;52.406;9.690;2023-11-19T02:14:18;7.90;99.90
64634;DHT22;51043;52.406;9.690;2023-11-19T02:16:51;7.90;99.90
64634;DHT22;51043;52.406;9.690;2023-11-19T02:19:19;7.90;99.90
64634;DHT22;51043;52.406;9.690;2023-11-19T02:21:51;7.90;99.90
64634;DHT22;51043;52.406;9.690;2023-11-19T02:24:22;8.00;99.90
64634;DHT22;51043;52.406;9.690;2023-11-19T02:26:59;8.00;99.90
64634;DHT22;51043;52.406;9.690;2023-11-19T02:29:32;7.90;99.90
64634;DHT22;51043;52.406;9.690;2023-11-19T02:32:01;8.00;99.90
64634;DHT22;51043;52.406;9.690;2023-11-19T02:34:30;8.00;99.90
64634;DHT22;51043;52.406;9.690;2023-11-19T02:36:58;8.00;99.90
64634;DHT22;51043;52.406;9.690;2023-11-19T02:39:27;8.00;99.90
64634;DHT22;51043;52.406;9.690;2023-11-19T02:41:55;8.00;99.90
64634;DHT22;51043;52.406;9.690;2023-11-19T02:44:27;8.00;99.90
64634;DHT22;51043;52.406;9.690;2023-11-19T02:47:02;8.00;99.90
64634;DHT22;51043;52.406;9.690;2023-11-19T02:49:31;8.10;99.90
64634;DHT22;51043;52.406;9.690;2023-11-19T02:51:59;8.10;99.90
64634;DHT22;51043;52.406;9.690;2023-11-19T02:54:31;8.10;99.90
64634;DHT22;51043;52.406;9.690;2023-11-19T02:57:01;8.10;99.90
64634;DHT22;51043;52.406;9.690;2023-11-19T02:59:31;8.10;99.90
64634;DHT22;51043;52.406;9.690;2023-11-19T03:02:07;8.10;99.90
64634;DHT22;51043;52.406;9.690;2023-11-19T03:04:38;8.10;99.90
64634;DHT22;51043;52.406;9.690;2023-11-19T03:07:07;8.20;99.90
64634;DHT22;51043;52.406;9.690;2023-11-19T03:09:35;8.20;99.90
64634;DHT22;51043;52.406;9.690;2023-11-19T03:12:06;8.20;99.90
64634;DHT22;51043;52.406;9.690;2023-11-19T03:14:34;8.20;99.90
64634;DHT22;51043;52.406;9.690;2023-11-19T03:17:03;8.20;99.90
64634;DHT22;51043;52.406;9.690;2023-11-19T03:19:34;8.20;99.90
64634;DHT22;51043;52.406;9.690;2023-11-19T03:22:04;8.30;99.90
64634;DHT22;51043;52.406;9.690;2023-11-19T03:24:34;8.30;99.90
64634;DHT22;51043;52.406;9.690;2023-11-19T03:27:04;8.40;99.90
64634;DHT22;51043;52.406;9.690;2023-11-19T03:29:36;8.40;99.90
64634;DHT22;51043;52.406;9.690;2023-11-19T03:32:10;8.30;99.90
64634;DHT22;51043;52.406;9.690;2023-11-19T03:34:40;8.40;99.90
64634;DHT22;51043;52.406;9.690;2023-11-19T03:37:08;8.30;99.90
64634;DHT22;51043;52.406;9.690;2023-11-19T03:39:40;8.40;99.90
64634;DHT22;51043;52.406;9.690;2023-11-19T03:42:08;8.40;99.90
64634;DHT22;51043;52.406;9.690;2023-11-19T03:44:36;8.40;99.90
64634;DHT22;51043;52.406;9.690;2023-11-19T03:47:04;8.50;99.90
64634;DHT22;51043;52.406;9.690;2023-11-19T03:49:33;8.50;99.90
64634;DHT22;51043;52.406;9.690;2023-11-19T03:52:03;8.50;99.90
64634;DHT22;51043;52.406;9.690;2023-11-19T03:54:32;8.50;99.90
64634;DHT22;51043;52.406;9.690;2023-11-19T03:57:00;8.60;99.90
64634;DHT22;51043;52.406;9.690;2023-11-19T03:59:30;8.60;99.90
64634;DHT22;51043;52.406;9.690;2023-11-19T04:01:58;8.60;99.90
64634;DHT22;51043;52.406;9.690;2023-11-19T04:04:30;8.70;99.90
64634;DHT22;51043;52.406;9.690;2023-11-19T04:06:59;8.70;99.90
64634;DHT22;51043;52.406;9.690;2023-11-19T04:09:28;8.70;99.90
64634;DHT22;51043;52.406;9.690;2023-11-19T04:11:57;8.80;99.90
64634;DHT22;51043;52.406;9.690;2023-11-19T04:14:27;8.90;99.90
64634;DHT22;51043;52.406;9.690;2023-11-19T04:16:55;8.90;99.90
64634;DHT22;51043;52.406;9.690;2023-11-19T04:19:26;8.90;99.90
64634;DHT22;51043;52.406;9.690;2023-11-19T04:21:56;8.90;99.90
64634;DHT22;51043;52.406;9.690;2023-11-19T04:24:25;8.90;99.90
64634;DHT22;51043;52.406;9.690;2023-11-19T04:26:55;9.00;99.90
64634;DHT22;51043;52.406;9.690;2023-11-19T04:29:24;9.00;99.90
64634;DHT22;51043;52.406;9.690;2023-11-19T04:31:54;9.00;99.90
64634;DHT22;51043;52.406;9.690;2023-11-19T04:34:24;9.10;99.90
64634;DHT22;51043;52.406;9.690;2023-11-19T04:36:55;9.10;99.90
64634;DHT22;51043;52.406;9.690;2023-11-19T04:39:23;9.20;99.90
64634;DHT22;51043;52.406;9.690;2023-11-19T04:41:52;9.20;99.90
64634;DHT22;51043;52.406;9.690;2023-11-19T04:44:22;9.30;99.90
64634;DHT22;51043;52.406;9.690;2023-11-19T04:46:51;9.40;99.90
64634;DHT22;51043;52.406;9.690;2023-11-19T04:49:19;9.50;99.90
64634;DHT22;51043;52.406;9.690;2023-11-19T04:51:48;9.60;99.90
64634;DHT22;51043;52.406;9.690;2023-11-19T04:54:18;9.60;99.90
64634;DHT22;51043;52.406;9.690;2023-11-19T04:56:46;9.70;99.90
64634;DHT22;51043;52.406;9.690;2023-11-19T04:59:17;9.80;99.90
64634;DHT22;51043;52.406;9.690;2023-11-19T05:01:49;9.80;99.90
64634;DHT22;51043;52.406;9.690;2023-11-19T05:04:17;9.80;99.90
64634;DHT22;51043;52.406;9.690;2023-11-19T05:06:47;9.80;99.90
64634;DHT22;51043;52.406;9.690;2023-11-19T05:09:15;9.80;99.90
64634;DHT22;51043;52.406;9.690;2023-11-19T05:11:43;9.90;99.90
64634;DHT22;51043;52.406;9.690;2023-11-19T05:14:14;9.80;99.90
64634;DHT22;51043;52.406;9.690;2023-11-19T05:16:43;9.90;99.90
64634;DHT22;51043;52.406;9.690;2023-11-19T05:19:12;10.00;99.90
64634;DHT22;51043;52.406;9.690;2023-11-19T05:21:42;10.10;99.90
64634;DHT22;51043;52.406;9.690;2023-11-19T05:24:10;10.00;99.90
64634;DHT22;51043;52.406;9.690;2023-11-19T05:26:39;10.10;99.90
64634;DHT22;51043;52.406;9.690;2023-11-19T05:29:08;10.10;99.90
64634;DHT22;51043;52.406;9.690;2023-11-19T05:31:37;10.10;99.90
64634;DHT22;51043;52.406;9.690;2023-11-19T05:34:06;10.10;99.90
64634;DHT22;51043;52.406;9.690;2023-11-19T05:36:36;10.20;99.90
64634;DHT22;51043;52.406;9.690;2023-11-19T05:39:06;10.30;99.90
64634;DHT22;51043;52.406;9.690;2023-11-19T05:41:34;10.40;99.90
64634;DHT22;51043;52.406;9.690;2023-11-19T05:44:02;10.40;99.90
64634;DHT22;51043;52.406;9.690;2023-11-19T05:46:31;10.50;99.90
64634;DHT22;51043;52.406;9.690;2023-11-19T05:48:59;10.60;99.90
64634;DHT22;51043;52.406;9.690;2023-11-19T05:51:31;10.70;99.90
64634;DHT22;51043;52.406;9.690;2023-11-19T05:54:01;10.80;99.90
64634;DHT22;51043;52.406;9.690;2023-11-19T05:56:29;10.80;99.90
64634;DHT22;51043;52.406;9.690;2023-11-19T05:58:59;10.80;99.90
64634;DHT22;51043;52.406;9.690;2023-11-19T06:01:28;10.90;99.90
64634;DHT22;51043;52.406;9.690;2023-11-19T06:04:03;11.00;99.90
64634;DHT22;51043;52.406;9.690;2023-11-19T06:06:31;11.00;99.90
64634;DHT22;51043;52.406;9.690;2023-11-19T06:09:01;10.90;99.90
64634;DHT22;51043;52.406;9.690;2023-11-19T06:11:36;10.90;99.90
64634;DHT22;51043;52.406;9.690;2023-11-19T06:14:04;10.90;99.90
64634;DHT22;51043;52.406;9.690;2023-11-19T06:16:32;10.90;99.90
64634;DHT22;51043;52.406;9.690;2023-11-19T06:19:01;10.90;99.90
64634;DHT22;51043;52.406;9.690;2023-11-19T06:21:29;10.90;99.90
64634;DHT22;51043;52.406;9.690;2023-11-19T06:23:57;10.90;99.90
64634;DHT22;51043;52.406;9.690;2023-11-19T06:26:30;11.00;99.90
64634;DHT22;51043;52.406;9.690;2023-11-19T06:28:58;11.00;99.90
64634;DHT22;51043;52.406;9.690;2023-11-19T06:31:30;11.00;99.90
64634;DHT22;51043;52.406;9.690;2023-11-19T06:33:58;11.00;99.90
64634;DHT22;51043;52.406;9.690;2023-11-19T06:36:26;11.10;99.90
64634;DHT22;51043;52.406;9.690;2023-11-19T06:38:55;11.10;99.90
64634;DHT22;51043;52.406;9.690;2023-11-19T06:41:23;11.00;99.90
64634;DHT22;51043;52.406;9.690;2023-11-19T06:43:56;11.10;99.90
64634;DHT22;51043;52.406;9.690;2023-11-19T06:46:25;11.10;99.90
64634;DHT22;51043;52.406;9.690;2023-11-19T06:48:54;11.20;99.90
64634;DHT22;51043;52.406;9.690;2023-11-19T06:51:25;11.20;99.90
64634;DHT22;51043;52.406;9.690;2023-11-19T06:53:59;11.30;99.90
64634;DHT22;51043;52.406;9.690;2023-11-19T06:56:30;11.20;99.90
64634;DHT22;51043;52.406;9.690;2023-11-19T06:58:59;11.20;99.90
64634;DHT22;51043;52.406;9.690;2023-11-19T07:01:34;11.20;99.90
64634;DHT22;51043;52.406;9.690;2023-11-19T07:04:04;11.40;99.90
64634;DHT22;51043;52.406;9.690;2023-11-19T07:06:36;11.40;99.90
64634;DHT22;51043;52.406;9.690;2023-11-19T07:09:04;11.40;99.90
64634;DHT22;51043;52.406;9.690;2023-11-19T07:11:37;11.50;99.90
64634;DHT22;51043;52.406;9.690;2023-11-19T07:14:07;11.50;99.90
64634;DHT22;51043;52.406;9.690;2023-11-19T07:16:36;11.50;99.90
64634;DHT22;51043;52.406;9.690;2023-11-19T07:19:05;11.50;99.90
64634;DHT22;51043;52.406;9.690;2023-11-19T07:21:36;11.50;99.90
64634;DHT22;51043;52.406;9.690;2023-11-19T07:24:06;11.50;99.90
64634;DHT22;51043;52.406;9.690;2023-11-19T07:26:35;11.50;99.90
64634;DHT22;51043;52.406;9.690;2023-11-19T07:29:04;11.50;99.90
64634;DHT22;51043;52.406;9.690;2023-11-19T07:31:36;11.60;99.90
64634;DHT22;51043;52.406;9.690;2023-11-19T07:34:06;11.60;99.90
64634;DHT22;51043;52.406;9.690;2023-11-19T07:36:36;11.60;99.90
64634;DHT22;51043;52.406;9.690;2023-11-19T07:39:05;11.50;99.90
64634;DHT22;51043;52.406;9.690;2023-11-19T07:41:36;11.50;99.90
64634;DHT22;51043;52.406;9.690;2023-11-19T07:44:05;11.50;99.90
64634;DHT22;51043;52.406;9.690;2023-11-19T07:46:33;11.50;99.90
64634;DHT22;51043;52.406;9.690;2023-11-19T07:49:03;11.50;99.90
64634;DHT22;51043;52.406;9.690;2023-11-19T07:51:31;11.50;99.90
64634;DHT22;51043;52.406;9.690;2023-11-19T07:54:00;11.40;99.90
64634;DHT22;51043;52.406;9.690;2023-11-19T07:56:32;11.50;99.90
64634;DHT22;51043;52.406;9.690;2023-11-19T07:59:01;11.50;99.90
64634;DHT22;51043;52.406;9.690;2023-11-19T08:01:29;11.50;99.90
64634;DHT22;51043;52.406;9.690;2023-11-19T08:03:57;11.40;99.90
64634;DHT22;51043;52.406;9.690;2023-11-19T08:06:28;11.40;99.90
64634;DHT22;51043;52.406;9.690;2023-11-19T08:08:59;11.50;99.90
64634;DHT22;51043;52.406;9.690;2023-11-19T08:11:29;11.50;99.90
64634;DHT22;51043;52.406;9.690;2023-11-19T08:13:57;11.60;99.90
64634;DHT22;51043;52.406;9.690;2023-11-19T08:16:25;11.60;99.90
64634;DHT22;51043;52.406;9.690;2023-11-19T08:18:54;11.70;99.90
64634;DHT22;51043;52.406;9.690;2023-11-19T08:21:33;11.60;99.90
64634;DHT22;51043;52.406;9.690;2023-11-19T08:24:01;11.60;99.90
64634;DHT22;51043;52.406;9.690;2023-11-19T08:26:30;11.50;99.90
64634;DHT22;51043;52.406;9.690;2023-11-19T08:28:58;11.50;99.90
64634;DHT22;51043;52.406;9.690;2023-11-19T08:31:29;11.50;99.90
64634;DHT22;51043;52.406;9.690;2023-11-19T08:33:57;11.50;99.90
64634;DHT22;51043;52.406;9.690;2023-11-19T08:36:26;11.60;99.90
64634;DHT22;51043;52.406;9.690;2023-11-19T08:38:57;11.60;99.90
64634;DHT22;51043;52.406;9.690;2023-11-19T08:41:27;11.60;99.90
64634;DHT22;51043;52.406;9.690;2023-11-19T08:43:58;11.60;99.90
64634;DHT22;51043;52.406;9.690;2023-11-19T08:46:26;11.60;99.90
64634;DHT22;51043;52.406;9.690;2023-11-19T08:48:57;11.60;99.90
64634;DHT22;51043;52.406;9.690;2023-11-19T08:51:32;11.60;99.90
64634;DHT22;51043;52.406;9.690;2023-11-19T08:54:01;11.60;99.90
64634;DHT22;51043;52.406;9.690;2023-11-19T08:56:30;11.70;99.90
64634;DHT22;51043;52.406;9.690;2023-11-19T08:59:01;11.80;99.90
64634;DHT22;51043;52.406;9.690;2023-11-19T09:01:32;11.90;99.90
64634;DHT22;51043;52.406;9.690;2023-11-19T09:04:00;12.00;99.90
64634;DHT22;51043;52.406;9.690;2023-11-19T09:06:35;12.10;99.90
64634;DHT22;51043;52.406;9.690;2023-11-19T09:09:05;12.10;99.90
64634;DHT22;51043;52.406;9.690;2023-11-19T09:11:34;11.90;99.90
64634;DHT22;51043;52.406;9.690;2023-11-19T09:14:02;11.70;99.90
64634;DHT22;51043;52.406;9.690;2023-11-19T09:16:31;11.60;99.90
64634;DHT22;51043;52.406;9.690;2023-11-19T09:19:06;11.60;99.90
64634;DHT22;51043;52.406;9.690;2023-11-19T09:21:35;11.50;99.90
64634;DHT22;51043;52.406;9.690;2023-11-19T09:24:07;11.60;99.90
64634;DHT22;51043;52.406;9.690;2023-11-19T09:26:35;11.80;99.90
64634;DHT22;51043;52.406;9.690;2023-11-19T09:29:06;11.90;99.90
64634;DHT22;51043;52.406;9.690;2023-11-19T09:31:34;12.10;99.90
64634;DHT22;51043;52.406;9.690;2023-11-19T09:34:06;12.30;99.90
64634;DHT22;51043;52.406;9.690;2023-11-19T09:36:35;12.50;99.90
64634;DHT22;51043;52.406;9.690;2023-11-19T09:39:03;12.50;99.90
64634;DHT22;51043;52.406;9.690;2023-11-19T09:41:36;12.50;99.90
64634;DHT22;51043;52.406;9.690;2023-11-19T09:44:06;12.40;99.90
64634;DHT22;51043;52.406;9.690;2023-11-19T09:46:35;12.40;99.90
64634;DHT22;51043;52.406;9.690;2023-11-19T09:49:05;12.40;99.90
64634;DHT22;51043;52.406;9.690;2023-11-19T09:51:40;12.50;99.90
64634;DHT22;51043;52.406;9.690;2023-11-19T09:54:09;12.40;99.90
64634;DHT22;51043;52.406;9.690;2023-11-19T09:56:41;12.40;99.90
64634;DHT22;51043;52.406;9.690;2023-11-19T09:59:11;12.50;99.90
64634;DHT22;51043;52.406;9.690;2023-11-19T10:01:44;12.80;99.90
64634;DHT22;51043;52.406;9.690;2023-11-19T10:04:15;13.30;99.90
64634;DHT22;51043;52.406;9.690;2023-11-19T10:06:44;13.60;99.90
64634;DHT22;51043;52.406;9.690;2023-11-19T10:09:14;13.70;99.90
64634;DHT22;51043;52.406;9.690;2023-11-19T10:11:47;13.60;99.90
64634;DHT22;51043;52.406;9.690;2023-11-19T10:14:15;13.20;99.90
64634;DHT22;51043;52.406;9.690;2023-11-19T10:16:46;12.90;99.90
64634;DHT22;51043;52.406;9.690;2023-11-19T10:19:19;13.00;99.90
64634;DHT22;51043;52.406;9.690;2023-11-19T10:21:47;13.20;99.90
64634;DHT22;51043;52.406;9.690;2023-11-19T10:24:16;13.60;99.90
64634;DHT22;51043;52.406;9.690;2023-11-19T10:26:48;13.90;99.90
64634;DHT22;51043;52.406;9.690;2023-11-19T10:29:17;13.60;99.90
64634;DHT22;51043;52.406;9.690;2023-11-19T10:31:56;13.10;99.90
64634;DHT22;51043;52.406;9.690;2023-11-19T10:34:26;13.20;99.90
64634;DHT22;51043;52.406;9.690;2023-11-19T10:37:02;14.00;99.90
64634;DHT22;51043;52.406;9.690;2023-11-19T10:39:51;14.40;99.90
64634;DHT22;51043;52.406;9.690;2023-11-19T10:42:22;14.00;99.90
64634;DHT22;51043;52.406;9.690;2023-11-19T10:44:50;13.80;99.90
64634;DHT22;51043;52.406;9.690;2023-11-19T10:47:19;13.60;99.90
64634;DHT22;51043;52.406;9.690;2023-11-19T10:50:03;13.50;99.90
64634;DHT22;51043;52.406;9.690;2023-11-19T10:52:36;13.60;99.90
64634;DHT22;51043;52.406;9.690;2023-11-19T10:55:08;13.80;99.90
64634;DHT22;51043;52.406;9.690;2023-11-19T10:57:43;13.90;99.90
64634;DHT22;51043;52.406;9.690;2023-11-19T11:00:18;13.70;99.90
64634;DHT22;51043;52.406;9.690;2023-11-19T11:02:50;13.40;99.90
64634;DHT22;51043;52.406;9.690;2023-11-19T11:05:22;13.40;99.90
64634;DHT22;51043;52.406;9.690;2023-11-19T11:07:55;13.70;99.90
64634;DHT22;51043;52.406;9.690;2023-11-19T11:10:25;13.90;99.90
64634;DHT22;51043;52.406;9.690;2023-11-19T11:12:56;13.90;99.90
64634;DHT22;51043;52.406;9.690;2023-11-19T11:15:27;13.80;99.90
64634;DHT22;51043;52.406;9.690;2023-11-19T11:18:00;13.70;99.90
64634;DHT22;51043;52.406;9.690;2023-11-19T11:20:35;13.60;99.90
64634;DHT22;51043;52.406;9.690;2023-11-19T11:23:52;13.70;99.90
64634;DHT22;51043;52.406;9.690;2023-11-19T11:29:30;13.60;99.90
64634;DHT22;51043;52.406;9.690;2023-11-19T11:32:16;13.70;99.90
64634;DHT22;51043;52.406;9.690;2023-11-19T11:34:57;13.70;99.90
64634;DHT22;51043;52.406;9.690;2023-11-19T11:37:32;13.70;99.90
64634;DHT22;51043;52.406;9.690;2023-11-19T11:40:08;13.70;99.90
64634;DHT22;51043;52.406;9.690;2023-11-19T11:42:45;13.60;99.90
64634;DHT22;51043;52.406;9.690;2023-11-19T11:45:15;13.50;99.90
64634;DHT22;51043;52.406;9.690;2023-11-19T11:48:10;13.40;99.90
64634;DHT22;51043;52.406;9.690;2023-11-19T11:51:02;13.20;99.90
64634;DHT22;51043;52.406;9.690;2023-11-19T11:53:30;13.10;99.90
64634;DHT22;51043;52.406;9.690;2023-11-19T11:56:04;13.00;99.90
64634;DHT22;51043;52.406;9.690;2023-11-19T11:58:40;13.00;99.90
64634;DHT22;51043;52.406;9.690;2023-11-19T12:01:15;13.00;99.90
64634;DHT22;51043;52.406;9.690;2023-11-19T12:03:50;13.10;99.90
64634;DHT22;51043;52.406;9.690;2023-11-19T12:06:21;13.10;99.90
64634;DHT22;51043;52.406;9.690;2023-11-19T12:08:51;13.10;99.90
64634;DHT22;51043;52.406;9.690;2023-11-19T12:11:23;13.10;99.90
64634;DHT22;51043;52.406;9.690;2023-11-19T12:13:57;13.00;99.90
64634;DHT22;51043;52.406;9.690;2023-11-19T12:16:31;12.90;99.90
64634;DHT22;51043;52.406;9.690;2023-11-19T12:19:04;12.90;99.90
64634;DHT22;51043;52.406;9.690;2023-11-19T12:21:37;12.90;99.90
64634;DHT22;51043;52.406;9.690;2023-11-19T12:24:06;13.10;99.90
64634;DHT22;51043;52.406;9.690;2023-11-19T12:26:38;13.10;99.90
64634;DHT22;51043;52.406;9.690;2023-11-19T12:29:08;13.10;99.90
64634;DHT22;51043;52.406;9.690;2023-11-19T12:31:38;13.10;99.90
64634;DHT22;51043;52.406;9.690;2023-11-19T12:34:12;13.20;99.90
64634;DHT22;51043;52.406;9.690;2023-11-19T12:36:41;13.30;99.90
64634;DHT22;51043;52.406;9.690;2023-11-19T12:39:10;13.40;99.90
64634;DHT22;51043;52.406;9.690;2023-11-19T12:41:50;13.40;99.90
64634;DHT22;51043;52.406;9.690;2023-11-19T12:44:18;13.30;99.90
64634;DHT22;51043;52.406;9.690;2023-11-19T12:46:59;13.30;99.90
64634;DHT22;51043;52.406;9.690;2023-11-19T12:49:28;13.30;99.90
64634;DHT22;51043;52.406;9.690;2023-11-19T12:51:56;13.20;99.90
64634;DHT22;51043;52.406;9.690;2023-11-19T12:54:41;13.20;99.90
64634;DHT22;51043;52.406;9.690;2023-11-19T12:57:09;13.10;99.90
64634;DHT22;51043;52.406;9.690;2023-11-19T12:59:41;13.00;99.90
64634;DHT22;51043;52.406;9.690;2023-11-19T13:02:11;13.00;99.90
64634;DHT22;51043;52.406;9.690;2023-11-19T13:04:41;12.90;99.90
64634;DHT22;51043;52.406;9.690;2023-11-19T13:07:11;12.90;99.90
64634;DHT22;51043;52.406;9.690;2023-11-19T13:09:40;13.00;99.90
64634;DHT22;51043;52.406;9.690;2023-11-19T13:12:15;12.90;99.90
64634;DHT22;51043;52.406;9.690;2023-11-19T13:14:44;12.90;99.90
64634;DHT22;51043;52.406;9.690;2023-11-19T13:17:15;12.80;99.90
64634;DHT22;51043;52.406;9.690;2023-11-19T13:19:47;12.70;99.90
64634;DHT22;51043;52.406;9.690;2023-11-19T13:22:15;12.70;99.90
64634;DHT22;51043;52.406;9.690;2023-11-19T13:24:50;12.70;99.90
64634;DHT22;51043;52.406;9.690;2023-11-19T13:27:21;12.60;99.90
64634;DHT22;51043;52.406;9.690;2023-11-19T13:29:50;12.60;99.90
64634;DHT22;51043;52.406;9.690;2023-11-19T13:32:22;12.60;99.90
64634;DHT22;51043;52.406;9.690;2023-11-19T13:34:50;12.60;99.90
64634;DHT22;51043;52.406;9.690;2023-11-19T13:37:19;12.70;99.90
64634;DHT22;51043;52.406;9.690;2023-11-19T13:39:47;12.70;99.90
64634;DHT22;51043;52.406;9.690;2023-11-19T13:42:16;12.60;99.90
64634;DHT22;51043;52.406;9.690;2023-11-19T13:44:44;12.80;99.90
64634;DHT22;51043;52.406;9.690;2023-11-19T13:47:12;12.60;99.90
64634;DHT22;51043;52.406;9.690;2023-11-19T13:49:43;12.50;99.90
64634;DHT22;51043;52.406;9.690;2023-11-19T13:52:12;12.60;99.90
64634;DHT22;51043;52.406;9.690;2023-11-19T13:54:40;12.60;99.90
64634;DHT22;51043;52.406;9.690;2023-11-19T13:57:09;12.60;99.90
64634;DHT22;51043;52.406;9.690;2023-11-19T13:59:40;12.60;99.90
64634;DHT22;51043;52.406;9.690;2023-11-19T14:02:08;12.70;99.90
64634;DHT22;51043;52.406;9.690;2023-11-19T14:04:39;12.70;99.90
64634;DHT22;51043;52.406;9.690;2023-11-19T14:07:09;12.70;99.90
64634;DHT22;51043;52.406;9.690;2023-11-19T14:09:37;12.70;99.90
64634;DHT22;51043;52.406;9.690;2023-11-19T14:12:07;12.70;99.90
64634;DHT22;51043;52.406;9.690;2023-11-19T14:14:37;12.70;99.90
64634;DHT22;51043;52.406;9.690;2023-11-19T14:17:06;12.70;99.90
64634;DHT22;51043;52.406;9.690;2023-11-19T14:19:38;12.80;99.90
64634;DHT22;51043;52.406;9.690;2023-11-19T14:22:08;12.80;99.90
64634;DHT22;51043;52.406;9.690;2023-11-19T14:24:36;12.80;99.90
64634;DHT22;51043;52.406;9.690;2023-11-19T14:27:08;12.80;99.90
64634;DHT22;51043;52.406;9.690;2023-11-19T14:29:40;12.80;99.90
64634;DHT22;51043;52.406;9.690;2023-11-19T14:32:09;12.70;99.90
64634;DHT22;51043;52.406;9.690;2023-11-19T14:34:39;12.70;99.90
64634;DHT22;51043;52.406;9.690;2023-11-19T14:37:11;12.60;99.90
64634;DHT22;51043;52.406;9.690;2023-11-19T14:39:40;12.50;99.90
64634;DHT22;51043;52.406;9.690;2023-11-19T14:42:10;12.40;99.90
64634;DHT22;51043;52.406;9.690;2023-11-19T14:44:41;12.40;99.90
64634;DHT22;51043;52.406;9.690;2023-11-19T14:47:09;12.30;99.90
64634;DHT22;51043;52.406;9.690;2023-11-19T14:49:41;12.30;99.90
64634;DHT22;51043;52.406;9.690;2023-11-19T14:52:10;12.00;99.90
64634;DHT22;51043;52.406;9.690;2023-11-19T14:54:41;11.60;99.90
64634;DHT22;51043;52.406;9.690;2023-11-19T14:57:15;11.30;99.90
64634;DHT22;51043;52.406;9.690;2023-11-19T14:59:44;11.10;99.90
64634;DHT22;51043;52.406;9.690;2023-11-19T15:02:14;10.90;99.90
64634;DHT22;51043;52.406;9.690;2023-11-19T15:04:44;10.80;99.90
64634;DHT22;51043;52.406;9.690;2023-11-19T15:07:13;10.80;99.90
64634;DHT22;51043;52.406;9.690;2023-11-19T15:09:43;10.60;99.90
64634;DHT22;51043;52.406;9.690;2023-11-19T15:12:12;10.60;99.90
64634;DHT22;51043;52.406;9.690;2023-11-19T15:14:41;10.60;99.90
64634;DHT22;51043;52.406;9.690;2023-11-19T15:17:09;10.60;99.90
64634;DHT22;51043;52.406;9.690;2023-11-19T15:19:42;10.50;99.90
64634;DHT22;51043;52.406;9.690;2023-11-19T15:22:14;10.50;99.90
64634;DHT22;51043;52.406;9.690;2023-11-19T15:24:42;10.50;99.90
64634;DHT22;51043;52.406;9.690;2023-11-19T15:27:10;10.60;99.90
64634;DHT22;51043;52.406;9.690;2023-11-19T15:29:40;10.50;99.90
64634;DHT22;51043;52.406;9.690;2023-11-19T15:32:08;10.50;99.90
64634;DHT22;51043;52.406;9.690;2023-11-19T15:34:37;10.40;99.90
64634;DHT22;51043;52.406;9.690;2023-11-19T15:37:08;10.40;99.90
64634;DHT22;51043;52.406;9.690;2023-11-19T15:39:40;10.40;99.90
64634;DHT22;51043;52.406;9.690;2023-11-19T15:42:11;10.40;99.90
64634;DHT22;51043;52.406;9.690;2023-11-19T15:44:39;10.30;99.90
64634;DHT22;51043;52.406;9.690;2023-11-19T15:47:07;10.40;99.90
64634;DHT22;51043;52.406;9.690;2023-11-19T15:49:36;10.30;99.90
64634;DHT22;51043;52.406;9.690;2023-11-19T15:52:05;10.30;99.90
64634;DHT22;51043;52.406;9.690;2023-11-19T15:54:34;10.30;99.90
64634;DHT22;51043;52.406;9.690;2023-11-19T15:57:06;10.30;99.90
64634;DHT22;51043;52.406;9.690;2023-11-19T15:59:35;10.30;99.90